Airfield :
LOGIN :

Register | Disclaimer

   EN    FR    IT 

 










Legend :    VFR   Marginal VFR   IFR   Intensive IFR   Very Intensive IFR
Visi :
Ceiling :
>= 8 km
>= 3000ft
5 to 8 km
1000 to 3000 ft
1500m to 5 km
500 to 1000 ft
800 to 1500m
200 to 500 ft
< 800m
< 200 ft
Symbols :   Thunderstorms  Fog  Heavy snow  Heavy precipitations  Wind > 20 kt
SIGMETs :     Misc.  Thunderstorms  Icing  Turbulence  Mountain Waves  Volcanic Ashes







- Airport Elevation : 87 ft
- IATA code : AHO


LIEA - Fertilia Alghero

CURRENT METAR :
  • 162150Z VRB02KT 9999 MIFG NSC 13/12 Q1026

EXPIRED METARs :
  • 162120Z 36001KT 9999 MIFG NSC 15/14 Q1027
  • 162050Z 05002KT 9999 MIFG NSC 16/14 Q1027
  • 162020Z 05003KT 9999 MIFG NSC 16/14 Q1027
  • 161950Z VRB02KT 9999 MIFG NSC 16/14 Q1027
  • 161920Z 36001KT CAVOK 17/15 Q1027

TAF TAF LIEA
Valid from the 16 at 18:00 until the 17 at 18:00 UTC


161700Z 1618/1718 VRB04KT CAVOK
TEMPO 1700/1706 1200 BCFG
BECMG 1708/1710 21010KT
No reported NOTAMs for that airfield.



MET'MAP, your aeronautical weather chart ! - Copyright ORBIFLY December 2007 - Disclaimer

ORBIFLY MET'MAP TEAM :

Programming & Development : Alexandra Zaïnal
Concept & Development : Baudouin d'Aumeries
Co-Development & Prog : Marc-Olivier Méhu
Technical & hardware support : Manuel Goepfert

Contact : metmap@orbifly.com




SOURCES & CREDITS :

   NOAA